Time;durP1;ratioP1;P1;durP2;ratioP2;P2;SDS_P1;SDS_P2;PMS_P1;PMS_P2;Temp;Humidity;BMP_temperature;BMP_pressure;BME280_temperature;BME280_humidity;BME280_pressure;Samples;Min_cycle;Max_cycle;Signal;HPM_P1;HPM_P2
2023/12/24 00:00:55;;;;;;;6.07;1.63;;;;;;;;;;4918858;29;20044;-85
2023/12/24 00:03:25;;;;;;;3.13;1.40;;;;;;;;;;4886156;29;20067;-84
2023/12/24 00:06:07;;;;;;;3.25;1.63;;;;;;;;;;4919221;29;20492;-84
2023/12/24 00:08:38;;;;;;;8.80;2.13;;;;;;;;;;4901992;29;20048;-85
2023/12/24 00:11:08;;;;;;;7.80;1.45;;;;;;;;;;4919198;29;20051;-83
2023/12/24 00:13:40;;;;;;;4.20;2.20;;;;;;;;;;4902517;29;20387;-83
2023/12/24 00:16:12;;;;;;;3.13;1.40;;;;;;;;;;4886347;29;20056;-86
2023/12/24 00:19:05;;;;;;;6.32;2.00;;;;;;;;;;4915633;29;20043;-84
2023/12/24 00:21:36;;;;;;;6.57;2.05;;;;;;;;;;4933992;29;20055;-82
2023/12/24 00:24:08;;;;;;;6.35;2.00;;;;;;;;;;4918417;29;20048;-82
2023/12/24 00:26:52;;;;;;;3.83;1.80;;;;;;;;;;4908557;29;20052;-86
2023/12/24 00:29:44;;;;;;;6.07;2.63;;;;;;;;;;4916803;29;20052;-84
2023/12/24 00:32:15;;;;;;;6.78;1.83;;;;;;;;;;4907090;29;20048;-82
2023/12/24 00:34:59;;;;;;;7.93;2.22;;;;;;;;;;4906609;29;20063;-83
2023/12/24 00:37:57;;;;;;;9.05;1.92;;;;;;;;;;4911519;29;20426;-84
2023/12/24 00:40:28;;;;;;;4.95;1.70;;;;;;;;;;4916805;29;20039;-83
2023/12/24 00:43:01;;;;;;;5.72;1.70;;;;;;;;;;4938004;29;20054;-82
2023/12/24 00:45:35;;;;;;;5.00;1.70;;;;;;;;;;4933585;28;20077;-83
2023/12/24 00:48:06;;;;;;;4.63;1.80;;;;;;;;;;4920823;29;20050;-87
2023/12/24 00:50:37;;;;;;;8.90;1.83;;;;;;;;;;4952705;28;20051;-85
2023/12/24 00:53:07;;;;;;;6.57;1.88;;;;;;;;;;4953584;29;20050;-86
2023/12/24 00:55:39;;;;;;;4.65;2.20;;;;;;;;;;4939635;29;20055;-83
2023/12/24 00:58:10;;;;;;;10.23;1.90;;;;;;;;;;4934494;29;20051;-86
2023/12/24 01:00:40;;;;;;;5.32;2.05;;;;;;;;;;4916255;29;20060;-85
2023/12/24 01:03:10;;;;;;;4.00;1.70;;;;;;;;;;4934861;29;20051;-83
2023/12/24 01:05:40;;;;;;;4.03;1.90;;;;;;;;;;4916629;29;20166;-83
2023/12/24 01:08:11;;;;;;;5.97;2.03;;;;;;;;;;4916992;29;20055;-83
2023/12/24 01:10:41;;;;;;;5.38;1.80;;;;;;;;;;4933074;29;20052;-86
2023/12/24 01:13:11;;;;;;;5.75;2.05;;;;;;;;;;4916728;29;20056;-86
2023/12/24 01:15:43;;;;;;;7.53;1.85;;;;;;;;;;4900712;29;20047;-84
2023/12/24 01:18:15;;;;;;;5.93;1.75;;;;;;;;;;4915868;29;20052;-84
2023/12/24 01:20:45;;;;;;;5.18;2.00;;;;;;;;;;4917028;29;20372;-87
2023/12/24 01:23:15;;;;;;;5.70;1.85;;;;;;;;;;4916546;29;20058;-84
2023/12/24 01:25:45;;;;;;;5.25;1.88;;;;;;;;;;4916592;29;20074;-84
2023/12/24 01:28:15;;;;;;;6.25;2.15;;;;;;;;;;4934152;29;20411;-86
2023/12/24 01:30:46;;;;;;;5.88;2.17;;;;;;;;;;4898243;29;20048;-83
2023/12/24 01:33:16;;;;;;;8.50;2.42;;;;;;;;;;4927725;29;20062;-85
2023/12/24 01:35:47;;;;;;;7.75;2.40;;;;;;;;;;4902826;29;20055;-83
2023/12/24 01:38:17;;;;;;;9.25;2.65;;;;;;;;;;4934903;29;20056;-84
2023/12/24 01:40:50;;;;;;;5.32;2.30;;;;;;;;;;4930644;29;20418;-84
2023/12/24 01:43:21;;;;;;;9.48;2.35;;;;;;;;;;4933157;29;20060;-84
2023/12/24 01:45:52;;;;;;;4.85;2.13;;;;;;;;;;4917248;29;20063;-86
2023/12/24 01:48:25;;;;;;;5.78;1.98;;;;;;;;;;4915440;29;20059;-84
2023/12/24 01:50:57;;;;;;;6.85;2.13;;;;;;;;;;4933425;29;20047;-84
2023/12/24 01:53:28;;;;;;;8.75;1.80;;;;;;;;;;4933325;29;20071;-89
2023/12/24 01:56:01;;;;;;;3.40;1.90;;;;;;;;;;4915606;29;20047;-88
2023/12/24 01:58:32;;;;;;;6.63;2.70;;;;;;;;;;4915910;29;20403;-84
2023/12/24 02:01:03;;;;;;;5.85;2.42;;;;;;;;;;4916734;29;20051;-86
2023/12/24 02:03:35;;;;;;;11.30;2.70;;;;;;;;;;4900836;29;20407;-86
2023/12/24 02:06:08;;;;;;;6.00;2.10;;;;;;;;;;4917239;29;20047;-87
2023/12/24 02:08:40;;;;;;;7.28;2.15;;;;;;;;;;4932594;29;20074;-86
2023/12/24 02:11:11;;;;;;;7.90;2.00;;;;;;;;;;4932204;29;20056;-85
2023/12/24 02:13:41;;;;;;;8.35;2.92;;;;;;;;;;4933298;29;20063;-87
2023/12/24 02:16:18;;;;;;;5.28;2.28;;;;;;;;;;4917229;29;20059;-84
2023/12/24 02:18:49;;;;;;;4.82;1.80;;;;;;;;;;4916442;29;20050;-86
2023/12/24 02:21:19;;;;;;;7.53;2.35;;;;;;;;;;4927964;29;20059;-87
2023/12/24 02:23:50;;;;;;;7.30;2.30;;;;;;;;;;4896380;29;20055;-84
2023/12/24 02:26:59;;;;;;;6.45;2.25;;;;;;;;;;4913177;29;20055;-86
2023/12/24 02:29:39;;;;;;;9.65;2.05;;;;;;;;;;4898297;29;20048;-85
2023/12/24 02:32:17;;;;;;;4.97;2.28;;;;;;;;;;4915606;29;20051;-86
2023/12/24 02:34:50;;;;;;;7.68;2.50;;;;;;;;;;4916170;29;20064;-84
2023/12/24 02:37:23;;;;;;;8.15;2.40;;;;;;;;;;4933985;29;20044;-83
2023/12/24 02:39:53;;;;;;;7.50;2.25;;;;;;;;;;4916093;29;20261;-85
2023/12/24 02:42:24;;;;;;;5.65;2.13;;;;;;;;;;4915760;29;20068;-86
2023/12/24 02:44:54;;;;;;;6.72;2.50;;;;;;;;;;4900441;29;20062;-87
2023/12/24 02:47:24;;;;;;;4.60;1.98;;;;;;;;;;4930338;29;20047;-86
2023/12/24 02:49:54;;;;;;;4.90;1.73;;;;;;;;;;4916979;29;20048;-86
2023/12/24 02:52:24;;;;;;;6.43;2.15;;;;;;;;;;4916397;29;20060;-86
2023/12/24 02:54:55;;;;;;;11.30;2.47;;;;;;;;;;4915877;29;20162;-90
2023/12/24 02:57:26;;;;;;;7.40;2.15;;;;;;;;;;4935070;29;20043;-83
2023/12/24 02:59:56;;;;;;;5.13;2.15;;;;;;;;;;4918020;29;20055;-84
2023/12/24 03:02:27;;;;;;;11.27;3.00;;;;;;;;;;4918222;29;20059;-86
2023/12/24 03:04:58;;;;;;;8.82;2.22;;;;;;;;;;4935798;29;20055;-86
2023/12/24 03:07:29;;;;;;;7.72;2.33;;;;;;;;;;4928004;29;20055;-85
2023/12/24 03:09:59;;;;;;;6.28;2.03;;;;;;;;;;4935912;29;20044;-84
2023/12/24 03:12:29;;;;;;;8.30;2.40;;;;;;;;;;4918565;29;20059;-87
2023/12/24 03:14:59;;;;;;;3.30;2.10;;;;;;;;;;4939523;29;20047;-84
2023/12/24 03:17:29;;;;;;;5.60;2.10;;;;;;;;;;4921045;29;20052;-83
2023/12/24 03:19:59;;;;;;;7.60;2.40;;;;;;;;;;4921465;29;20059;-83
2023/12/24 03:22:31;;;;;;;6.13;2.35;;;;;;;;;;4939317;29;20047;-86
2023/12/24 03:25:03;;;;;;;7.30;2.28;;;;;;;;;;4905796;29;20507;-85
2023/12/24 03:27:34;;;;;;;10.32;2.33;;;;;;;;;;4939361;29;20055;-85
2023/12/24 03:30:05;;;;;;;5.28;2.40;;;;;;;;;;4936902;29;20211;-84
2023/12/24 03:32:38;;;;;;;6.10;2.40;;;;;;;;;;4937732;29;20059;-86
2023/12/24 03:35:09;;;;;;;7.40;2.30;;;;;;;;;;4907341;29;20407;-88
2023/12/24 03:37:39;;;;;;;12.70;2.63;;;;;;;;;;4928184;29;20063;-84
2023/12/24 03:40:11;;;;;;;5.20;2.42;;;;;;;;;;4928387;29;20387;-85
2023/12/24 03:42:41;;;;;;;17.77;3.75;;;;;;;;;;4911524;29;20048;-84
2023/12/24 03:45:12;;;;;;;14.07;3.15;;;;;;;;;;4940139;29;20043;-83
2023/12/24 03:47:42;;;;;;;4.60;2.20;;;;;;;;;;4938403;29;20062;-85
2023/12/24 03:50:13;;;;;;;8.15;2.22;;;;;;;;;;4938398;29;20054;-87
2023/12/24 03:52:44;;;;;;;12.50;2.42;;;;;;;;;;4938062;29;20055;-86
2023/12/24 03:55:15;;;;;;;11.43;2.53;;;;;;;;;;4921027;29;20403;-85
2023/12/24 03:57:46;;;;;;;10.73;2.33;;;;;;;;;;4919790;29;20066;-84
2023/12/24 04:00:16;;;;;;;9.32;3.00;;;;;;;;;;4938669;29;20062;-84
2023/12/24 04:02:47;;;;;;;6.68;2.97;;;;;;;;;;4920622;29;20056;-84
2023/12/24 04:05:19;;;;;;;4.82;2.00;;;;;;;;;;4938503;29;20044;-84
2023/12/24 04:07:50;;;;;;;7.25;2.72;;;;;;;;;;4921596;29;20054;-86
2023/12/24 04:10:20;;;;;;;8.50;2.20;;;;;;;;;;4921170;29;20055;-85
2023/12/24 04:12:51;;;;;;;8.73;2.63;;;;;;;;;;4921020;29;20062;-84
2023/12/24 04:15:22;;;;;;;6.63;2.03;;;;;;;;;;4938246;29;20047;-85
2023/12/24 04:17:53;;;;;;;5.63;2.20;;;;;;;;;;4938070;29;20509;-83
2023/12/24 04:20:25;;;;;;;7.47;2.10;;;;;;;;;;4902071;29;20056;-86
2023/12/24 04:22:56;;;;;;;9.75;2.03;;;;;;;;;;4901997;29;20060;-84
2023/12/24 04:25:27;;;;;;;10.52;2.15;;;;;;;;;;4885794;29;20079;-86
2023/12/24 04:27:58;;;;;;;8.57;2.25;;;;;;;;;;4900553;29;20055;-84
2023/12/24 04:30:28;;;;;;;7.03;2.38;;;;;;;;;;4910291;29;20048;-84
2023/12/24 04:33:02;;;;;;;7.15;2.45;;;;;;;;;;4905431;29;20047;-83
2023/12/24 04:35:33;;;;;;;6.18;2.60;;;;;;;;;;4920107;29;20075;-85
2023/12/24 04:38:04;;;;;;;9.73;2.83;;;;;;;;;;4920240;29;20435;-87
2023/12/24 04:40:36;;;;;;;6.15;2.60;;;;;;;;;;4937520;29;20059;-84
2023/12/24 04:43:06;;;;;;;5.13;2.15;;;;;;;;;;4920447;29;20059;-85
2023/12/24 04:45:37;;;;;;;5.03;2.08;;;;;;;;;;4919874;29;20055;-85
2023/12/24 04:48:10;;;;;;;7.28;2.33;;;;;;;;;;4920308;29;20124;-84
2023/12/24 04:50:41;;;;;;;7.40;1.85;;;;;;;;;;4919420;29;20055;-85
2023/12/24 04:53:11;;;;;;;6.03;2.20;;;;;;;;;;4920007;29;20056;-87
2023/12/24 04:55:41;;;;;;;8.93;2.35;;;;;;;;;;4920122;29;20059;-87
2023/12/24 04:58:11;;;;;;;8.57;2.10;;;;;;;;;;4919489;29;20514;-85
2023/12/24 05:00:41;;;;;;;6.82;2.05;;;;;;;;;;4919864;29;20052;-85
2023/12/24 05:03:11;;;;;;;9.30;2.08;;;;;;;;;;4904423;29;20063;-84
2023/12/24 05:05:43;;;;;;;20.63;2.80;;;;;;;;;;4937408;29;20047;-86
2023/12/24 05:08:13;;;;;;;14.38;2.58;;;;;;;;;;4919743;29;20059;-84
2023/12/24 05:10:45;;;;;;;9.15;3.17;;;;;;;;;;4919518;29;20056;-86
2023/12/24 05:13:15;;;;;;;13.82;2.97;;;;;;;;;;4919520;29;20055;-85
2023/12/24 05:15:46;;;;;;;10.18;2.78;;;;;;;;;;4903468;29;20484;-84
2023/12/24 05:18:19;;;;;;;7.05;2.28;;;;;;;;;;4919740;29;20066;-85
2023/12/24 05:20:50;;;;;;;6.85;2.47;;;;;;;;;;4920129;29;20055;-86
2023/12/24 05:23:24;;;;;;;15.23;2.75;;;;;;;;;;4918699;29;20051;-84
2023/12/24 05:25:55;;;;;;;10.40;3.00;;;;;;;;;;4919994;29;20050;-85
2023/12/24 05:28:27;;;;;;;10.02;2.88;;;;;;;;;;4935576;29;20050;-85
2023/12/24 05:30:57;;;;;;;8.52;2.83;;;;;;;;;;4935430;29;20481;-86
2023/12/24 05:33:28;;;;;;;7.80;3.10;;;;;;;;;;4919961;29;20055;-85
2023/12/24 05:36:00;;;;;;;6.00;3.10;;;;;;;;;;4920502;29;20052;-85
2023/12/24 05:38:31;;;;;;;6.68;2.72;;;;;;;;;;4934997;29;20055;-86
2023/12/24 05:41:01;;;;;;;4.50;2.30;;;;;;;;;;4919158;29;20525;-87
2023/12/24 05:43:31;;;;;;;6.38;3.00;;;;;;;;;;4936317;29;20052;-87
2023/12/24 05:46:03;;;;;;;7.28;2.90;;;;;;;;;;4907298;29;20059;-85
2023/12/24 05:48:33;;;;;;;6.00;2.90;;;;;;;;;;4921754;29;20544;-84
2023/12/24 05:51:04;;;;;;;8.77;2.97;;;;;;;;;;4920235;29;20525;-85
2023/12/24 05:53:34;;;;;;;6.95;2.80;;;;;;;;;;4936356;29;20098;-88
2023/12/24 05:56:04;;;;;;;5.95;3.05;;;;;;;;;;4918670;29;20071;-84
2023/12/24 05:58:35;;;;;;;9.88;2.60;;;;;;;;;;4936409;29;20051;-84
2023/12/24 06:01:05;;;;;;;10.50;2.97;;;;;;;;;;4918683;29;20055;-84
2023/12/24 06:03:36;;;;;;;11.27;3.05;;;;;;;;;;4934902;29;20055;-86
2023/12/24 06:06:06;;;;;;;12.02;2.92;;;;;;;;;;4936227;29;20055;-84
2023/12/24 06:08:37;;;;;;;21.95;3.00;;;;;;;;;;4936336;29;20059;-86
2023/12/24 06:11:16;;;;;;;10.18;2.88;;;;;;;;;;4903254;29;20493;-83
2023/12/24 06:13:47;;;;;;;7.82;3.05;;;;;;;;;;4936105;29;20047;-84
2023/12/24 06:16:18;;;;;;;7.13;3.08;;;;;;;;;;4919613;29;20050;-84
2023/12/24 06:18:49;;;;;;;15.60;3.58;;;;;;;;;;4919524;29;20051;-85
2023/12/24 06:21:20;;;;;;;12.02;2.97;;;;;;;;;;4918427;29;20078;-84
2023/12/24 06:23:52;;;;;;;8.85;3.22;;;;;;;;;;4935271;29;20055;-86
2023/12/24 06:26:22;;;;;;;7.80;2.88;;;;;;;;;;4935243;29;20539;-85
2023/12/24 06:28:52;;;;;;;10.68;2.83;;;;;;;;;;4918536;29;20062;-86
2023/12/24 06:31:23;;;;;;;6.55;2.85;;;;;;;;;;4936042;29;20047;-85
2023/12/24 06:33:53;;;;;;;9.00;2.65;;;;;;;;;;4917837;29;20515;-85
2023/12/24 06:36:23;;;;;;;10.98;3.53;;;;;;;;;;4918532;29;20059;-84
2023/12/24 06:38:54;;;;;;;23.48;4.85;;;;;;;;;;4935603;29;20415;-84
2023/12/24 06:41:24;;;;;;;8.65;3.17;;;;;;;;;;4936103;29;20051;-87
2023/12/24 06:43:55;;;;;;;17.17;3.53;;;;;;;;;;4935884;29;20487;-86
2023/12/24 06:46:25;;;;;;;22.95;3.58;;;;;;;;;;4935838;29;20483;-87
2023/12/24 06:48:56;;;;;;;8.90;3.53;;;;;;;;;;4921479;29;20055;-87
2023/12/24 06:51:26;;;;;;;11.52;3.53;;;;;;;;;;4923000;29;20047;-84
2023/12/24 06:53:58;;;;;;;8.30;2.80;;;;;;;;;;4922429;29;20048;-88
2023/12/24 06:56:28;;;;;;;34.88;4.95;;;;;;;;;;4939504;29;20055;-84
2023/12/24 06:58:58;;;;;;;32.38;3.17;;;;;;;;;;4939380;29;20054;-87
2023/12/24 07:01:28;;;;;;;11.57;2.95;;;;;;;;;;4939360;29;20062;-85
2023/12/24 07:03:59;;;;;;;14.82;3.03;;;;;;;;;;4922465;29;20514;-83
2023/12/24 07:06:29;;;;;;;27.10;2.97;;;;;;;;;;4939105;29;20048;-85
2023/12/24 07:08:59;;;;;;;11.05;2.72;;;;;;;;;;4939144;29;20051;-89
2023/12/24 07:11:30;;;;;;;20.38;3.83;;;;;;;;;;4921574;29;20056;-84
2023/12/24 07:14:00;;;;;;;9.60;2.92;;;;;;;;;;4938688;29;20411;-85
2023/12/24 07:16:30;;;;;;;9.68;2.88;;;;;;;;;;4921754;29;20439;-85
2023/12/24 07:19:02;;;;;;;6.15;2.60;;;;;;;;;;4938738;29;20483;-83
2023/12/24 07:21:34;;;;;;;9.10;2.67;;;;;;;;;;4938987;29;20044;-83
2023/12/24 07:24:05;;;;;;;8.48;2.42;;;;;;;;;;4939262;29;20050;-86
2023/12/24 07:26:36;;;;;;;7.90;2.53;;;;;;;;;;4906035;29;20059;-83
2023/12/24 07:29:06;;;;;;;12.75;2.80;;;;;;;;;;4937156;29;20483;-84
2023/12/24 07:31:37;;;;;;;6.43;2.45;;;;;;;;;;4938461;29;20052;-85
2023/12/24 07:34:09;;;;;;;10.43;2.72;;;;;;;;;;4937643;29;20051;-87
2023/12/24 07:36:39;;;;;;;8.40;3.08;;;;;;;;;;4922653;29;20063;-86
2023/12/24 07:39:11;;;;;;;11.52;2.90;;;;;;;;;;4920749;29;20059;-85
2023/12/24 07:41:42;;;;;;;22.73;3.13;;;;;;;;;;4922000;29;20394;-86
2023/12/24 07:44:14;;;;;;;8.35;2.53;;;;;;;;;;4920252;29;20430;-87
2023/12/24 07:46:45;;;;;;;13.60;3.10;;;;;;;;;;4921083;29;20047;-83
2023/12/24 07:49:14;;;;;;;10.18;2.97;;;;;;;;;;4920890;29;20055;-84
2023/12/24 07:51:47;;;;;;;13.15;2.80;;;;;;;;;;4905663;29;20052;-86
2023/12/24 07:54:17;;;;;;;15.77;3.03;;;;;;;;;;4922011;29;20046;-85
2023/12/24 07:56:47;;;;;;;13.38;3.15;;;;;;;;;;4938129;29;20051;-85
2023/12/24 07:59:17;;;;;;;9.68;2.85;;;;;;;;;;4935206;29;20062;-84
2023/12/24 08:01:47;;;;;;;12.13;2.95;;;;;;;;;;4930705;29;20051;-86
2023/12/24 08:04:17;;;;;;;15.48;2.88;;;;;;;;;;4939920;29;20055;-83
2023/12/24 08:06:51;;;;;;;13.05;3.20;;;;;;;;;;4956426;29;20402;-87
2023/12/24 08:09:25;;;;;;;12.60;3.10;;;;;;;;;;4955570;29;20058;-83
2023/12/24 08:11:56;;;;;;;12.27;3.88;;;;;;;;;;4956688;29;20499;-83
2023/12/24 08:14:27;;;;;;;10.27;3.10;;;;;;;;;;4939785;29;20066;-84
2023/12/24 08:16:57;;;;;;;11.70;3.47;;;;;;;;;;4939908;29;20058;-83
2023/12/24 08:19:29;;;;;;;17.67;4.25;;;;;;;;;;4940771;29;20043;-83
2023/12/24 08:21:59;;;;;;;14.02;3.90;;;;;;;;;;4957335;29;20054;-85
2023/12/24 08:24:31;;;;;;;9.68;3.20;;;;;;;;;;4939310;29;20058;-86
2023/12/24 08:27:02;;;;;;;14.55;3.50;;;;;;;;;;4954292;29;20051;-83
2023/12/24 08:29:34;;;;;;;;;;;;;;;;;;4957447;29;20043;-85
2023/12/24 08:32:04;;;;;;;18.83;3.10;;;;;;;;;;4956444;29;19922;-86
2023/12/24 08:34:35;;;;;;;9.35;3.40;;;;;;;;;;4939759;29;20055;-88
2023/12/24 08:37:06;;;;;;;11.25;3.38;;;;;;;;;;4955339;29;20074;-85
2023/12/24 08:39:37;;;;;;;10.75;2.92;;;;;;;;;;4939142;29;20055;-84
2023/12/24 08:42:08;;;;;;;7.28;2.60;;;;;;;;;;4955909;29;20039;-84
2023/12/24 08:44:37;;;;;;;7.75;2.80;;;;;;;;;;4956360;29;20077;-87
2023/12/24 08:47:07;;;;;;;11.02;2.60;;;;;;;;;;4923626;29;20521;-87
2023/12/24 08:49:39;;;;;;;12.57;2.55;;;;;;;;;;4924056;29;20062;-85
2023/12/24 08:52:09;;;;;;;7.80;2.60;;;;;;;;;;4956262;29;20050;-84
2023/12/24 08:54:39;;;;;;;10.15;3.20;;;;;;;;;;4956898;29;20058;-84
2023/12/24 08:57:09;;;;;;;9.30;2.80;;;;;;;;;;4938353;29;20059;-82
2023/12/24 08:59:39;;;;;;;8.40;2.35;;;;;;;;;;4956206;29;20047;-85
2023/12/24 09:02:10;;;;;;;8.50;2.90;;;;;;;;;;4938824;29;20492;-86
2023/12/24 09:04:40;;;;;;;8.68;2.65;;;;;;;;;;4938465;29;20070;-88
2023/12/24 09:07:11;;;;;;;8.07;3.33;;;;;;;;;;4923160;29;20055;-86
2023/12/24 09:09:41;;;;;;;6.90;3.00;;;;;;;;;;4956557;28;20055;-84
2023/12/24 09:12:11;;;;;;;7.78;3.08;;;;;;;;;;4955998;29;20059;-84
2023/12/24 09:14:42;;;;;;;7.88;2.88;;;;;;;;;;4938535;29;20047;-85
2023/12/24 09:17:13;;;;;;;10.32;3.55;;;;;;;;;;4956039;29;20050;-86
2023/12/24 09:19:43;;;;;;;12.90;4.18;;;;;;;;;;4956041;29;20058;-85
2023/12/24 09:22:13;;;;;;;6.72;2.67;;;;;;;;;;4954623;29;20047;-86
2023/12/24 09:24:43;;;;;;;6.97;3.22;;;;;;;;;;4955804;29;20471;-82
2023/12/24 09:27:13;;;;;;;9.55;3.35;;;;;;;;;;4955801;29;20043;-84
2023/12/24 09:29:43;;;;;;;9.93;2.95;;;;;;;;;;4954258;29;20051;-83
2023/12/24 09:32:13;;;;;;;10.75;3.08;;;;;;;;;;4954489;29;20418;-84
2023/12/24 09:34:44;;;;;;;7.65;3.45;;;;;;;;;;4937447;29;20047;-87
2023/12/24 09:37:15;;;;;;;6.60;3.08;;;;;;;;;;4955829;29;20501;-83
2023/12/24 09:39:44;;;;;;;5.70;2.60;;;;;;;;;;4955105;29;20039;-85
2023/12/24 09:42:14;;;;;;;6.97;3.05;;;;;;;;;;4948375;29;20047;-86
2023/12/24 09:44:46;;;;;;;9.55;2.85;;;;;;;;;;4937539;29;20047;-87
2023/12/24 09:47:17;;;;;;;5.13;3.00;;;;;;;;;;4952651;29;20043;-83
2023/12/24 09:49:48;;;;;;;7.38;2.78;;;;;;;;;;4952776;29;20540;-84
2023/12/24 09:52:19;;;;;;;6.78;2.78;;;;;;;;;;4937673;29;20058;-87
2023/12/24 09:54:50;;;;;;;7.57;3.03;;;;;;;;;;4958012;29;20047;-87
2023/12/24 09:57:20;;;;;;;7.05;2.83;;;;;;;;;;4956726;29;20058;-83
2023/12/24 09:59:50;;;;;;;4.65;2.58;;;;;;;;;;4937474;29;20054;-83
2023/12/24 10:02:20;;;;;;;5.28;2.42;;;;;;;;;;4952518;29;20039;-83
2023/12/24 10:04:50;;;;;;;6.68;2.65;;;;;;;;;;4954254;29;20047;-83
2023/12/24 10:07:20;;;;;;;9.43;2.63;;;;;;;;;;4947549;28;20047;-85
2023/12/24 10:09:50;;;;;;;5.88;2.40;;;;;;;;;;4936785;29;20047;-86
2023/12/24 10:12:21;;;;;;;6.20;2.30;;;;;;;;;;4937137;29;20047;-89
2023/12/24 10:14:58;;;;;;;5.95;2.30;;;;;;;;;;4931130;29;20066;-83
2023/12/24 10:17:35;;;;;;;4.82;2.00;;;;;;;;;;4936276;29;20043;-84
2023/12/24 10:20:08;;;;;;;5.20;2.10;;;;;;;;;;4921014;29;20051;-86
2023/12/24 10:22:41;;;;;;;4.70;1.73;;;;;;;;;;4948627;29;20154;-86
2023/12/24 10:25:16;;;;;;;6.57;1.73;;;;;;;;;;4962145;29;20517;-83
2023/12/24 10:27:47;;;;;;;5.35;1.77;;;;;;;;;;4962687;29;20035;-83
2023/12/24 10:30:17;;;;;;;7.20;2.05;;;;;;;;;;4960547;29;20055;-83
2023/12/24 10:32:47;;;;;;;3.72;1.60;;;;;;;;;;4943524;29;20062;-82
2023/12/24 10:35:23;;;;;;;6.63;2.10;;;;;;;;;;4957696;29;20048;-83
2023/12/24 10:38:15;;;;;;;6.43;1.83;;;;;;;;;;4956761;29;20040;-87
2023/12/24 10:40:46;;;;;;;2.30;1.50;;;;;;;;;;4937636;29;20410;-82
2023/12/24 10:43:16;;;;;;;8.38;1.90;;;;;;;;;;4955529;29;20047;-84
2023/12/24 10:45:46;;;;;;;5.20;1.60;;;;;;;;;;4955792;29;20406;-84
2023/12/24 10:48:16;;;;;;;2.97;1.50;;;;;;;;;;4941770;29;20055;-84
2023/12/24 10:50:46;;;;;;;2.25;1.23;;;;;;;;;;4940774;29;20047;-87
2023/12/24 10:53:16;;;;;;;3.53;1.90;;;;;;;;;;4941231;29;20058;-82
2023/12/24 10:56:12;;;;;;;2.53;1.55;;;;;;;;;;4957966;29;20154;-85
2023/12/24 10:59:20;;;;;;;2.08;1.05;;;;;;;;;;4958707;29;20483;-83
2023/12/24 11:01:51;;;;;;;4.68;1.23;;;;;;;;;;4940860;29;20051;-83
2023/12/24 11:04:47;;;;;;;5.35;1.83;;;;;;;;;;4958078;29;20043;-85
2023/12/24 11:07:33;;;;;;;3.65;1.05;;;;;;;;;;4958525;29;20498;-85
2023/12/24 11:10:05;;;;;;;5.70;1.60;;;;;;;;;;4940217;29;20058;-84
2023/12/24 11:12:38;;;;;;;2.15;1.42;;;;;;;;;;4958256;29;20047;-85
2023/12/24 11:15:10;;;;;;;2.70;1.35;;;;;;;;;;4941443;29;20047;-83
2023/12/24 11:17:49;;;;;;;3.40;1.10;;;;;;;;;;4939861;29;20047;-85
2023/12/24 11:20:26;;;;;;;2.85;1.55;;;;;;;;;;4957651;29;20055;-83
2023/12/24 11:23:05;;;;;;;3.75;1.25;;;;;;;;;;4937082;29;20039;-82
2023/12/24 11:25:43;;;;;;;3.05;1.50;;;;;;;;;;4956041;29;20520;-85
2023/12/24 11:28:36;;;;;;;4.40;1.30;;;;;;;;;;4955567;29;20043;-82
2023/12/24 11:31:08;;;;;;;2.03;1.00;;;;;;;;;;4955170;29;20054;-81
2023/12/24 11:33:48;;;;;;;3.20;1.10;;;;;;;;;;4956519;28;20047;-81
2023/12/24 11:36:19;;;;;;;3.05;1.20;;;;;;;;;;4957982;29;20050;-81
2023/12/24 11:38:55;;;;;;;3.28;1.02;;;;;;;;;;4939701;29;20059;-81
2023/12/24 11:41:28;;;;;;;2.65;1.20;;;;;;;;;;4957582;29;20047;-83
2023/12/24 11:44:00;;;;;;;1.52;0.90;;;;;;;;;;4957511;29;20044;-80
2023/12/24 11:46:34;;;;;;;3.05;1.25;;;;;;;;;;4920597;29;20060;-79
2023/12/24 11:49:06;;;;;;;4.28;1.50;;;;;;;;;;4920852;29;20084;-79
2023/12/24 11:51:37;;;;;;;2.60;2.13;;;;;;;;;;4938236;29;20059;-79
2023/12/24 11:54:08;;;;;;;3.10;1.60;;;;;;;;;;4921631;29;20047;-80
2023/12/24 11:56:39;;;;;;;4.07;1.95;;;;;;;;;;4937822;29;20487;-79
2023/12/24 11:59:10;;;;;;;4.85;1.98;;;;;;;;;;4938148;29;20391;-81
2023/12/24 12:01:40;;;;;;;4.15;1.70;;;;;;;;;;4937915;29;20483;-80
2023/12/24 12:04:10;;;;;;;2.97;1.60;;;;;;;;;;4938502;29;20064;-80
2023/12/24 12:06:40;;;;;;;2.80;1.50;;;;;;;;;;4938051;29;20051;-79
2023/12/24 12:09:12;;;;;;;4.38;1.58;;;;;;;;;;4920341;29;20051;-80
2023/12/24 12:11:50;;;;;;;2.47;1.40;;;;;;;;;;4938186;29;20047;-81
2023/12/24 12:14:20;;;;;;;2.35;1.20;;;;;;;;;;4938471;29;20056;-81
2023/12/24 12:16:50;;;;;;;2.60;1.98;;;;;;;;;;4938699;29;20070;-81
2023/12/24 12:19:20;;;;;;;2.97;1.40;;;;;;;;;;4938203;29;20052;-81
2023/12/24 12:21:50;;;;;;;3.55;1.67;;;;;;;;;;4937819;29;20047;-80
2023/12/24 12:24:24;;;;;;;5.22;1.40;;;;;;;;;;4938224;29;20043;-81
2023/12/24 12:26:55;;;;;;;2.75;1.20;;;;;;;;;;4937959;29;20051;-80
2023/12/24 12:29:24;;;;;;;6.00;1.20;;;;;;;;;;4937395;29;20063;-82
2023/12/24 12:31:57;;;;;;;2.20;1.30;;;;;;;;;;4937724;29;20055;-82
2023/12/24 12:34:28;;;;;;;3.25;1.45;;;;;;;;;;4937317;29;20047;-83
2023/12/24 12:36:59;;;;;;;3.00;1.20;;;;;;;;;;4938050;29;20048;-84
2023/12/24 12:39:31;;;;;;;2.10;1.20;;;;;;;;;;4937671;29;20048;-82
2023/12/24 12:42:03;;;;;;;3.67;1.17;;;;;;;;;;4937579;29;20055;-82
2023/12/24 12:44:34;;;;;;;2.00;1.20;;;;;;;;;;4937303;29;20055;-82
2023/12/24 12:47:05;;;;;;;2.53;1.00;;;;;;;;;;4937375;29;20100;-82
2023/12/24 12:49:35;;;;;;;4.18;0.90;;;;;;;;;;4940128;29;20059;-81
2023/12/24 12:52:30;;;;;;;2.10;1.58;;;;;;;;;;4941030;29;20055;-81
2023/12/24 12:55:11;;;;;;;2.28;1.00;;;;;;;;;;4940098;29;20070;-82
2023/12/24 12:57:41;;;;;;;2.05;1.33;;;;;;;;;;4941499;29;20491;-81
2023/12/24 13:00:17;;;;;;;2.03;1.40;;;;;;;;;;4937435;29;20044;-82
2023/12/24 13:02:48;;;;;;;2.45;1.33;;;;;;;;;;4937656;29;20047;-83
2023/12/24 13:05:32;;;;;;;2.95;1.20;;;;;;;;;;4937103;29;20055;-87
2023/12/24 13:08:14;;;;;;;3.53;1.08;;;;;;;;;;4919229;29;20047;-87
2023/12/24 13:10:46;;;;;;;3.72;1.20;;;;;;;;;;4919652;29;20436;-85
2023/12/24 13:13:21;;;;;;;2.10;1.10;;;;;;;;;;4919235;29;20067;-86
2023/12/24 13:16:08;;;;;;;3.75;2.83;;;;;;;;;;4937146;29;20052;-86
2023/12/24 13:18:39;;;;;;;2.28;1.30;;;;;;;;;;4918126;29;20056;-87
2023/12/24 13:21:10;;;;;;;2.13;1.13;;;;;;;;;;4937081;29;20047;-85
2023/12/24 13:23:43;;;;;;;2.47;1.02;;;;;;;;;;4936595;29;20039;-83
2023/12/24 13:26:14;;;;;;;3.20;1.25;;;;;;;;;;4919875;29;20066;-84
2023/12/24 13:28:46;;;;;;;3.97;1.10;;;;;;;;;;4920843;29;20056;-85
2023/12/24 13:31:18;;;;;;;2.08;1.38;;;;;;;;;;4936489;29;20044;-84
2023/12/24 13:33:48;;;;;;;2.10;1.50;;;;;;;;;;4935703;29;20044;-84
2023/12/24 13:36:21;;;;;;;;;;;;;;;;;;4919468;29;20058;-86
2023/12/24 13:38:54;;;;;;;2.13;0.93;;;;;;;;;;4934069;29;19923;-86
2023/12/24 13:41:25;;;;;;;4.90;1.08;;;;;;;;;;4919413;29;20047;-85
2023/12/24 13:43:55;;;;;;;1.33;0.80;;;;;;;;;;4916956;29;21023;-84
2023/12/24 13:46:25;;;;;;;2.35;1.05;;;;;;;;;;4936117;29;20054;-85
2023/12/24 13:48:55;;;;;;;1.27;0.82;;;;;;;;;;4936393;29;20052;-85
2023/12/24 13:51:26;;;;;;;3.80;1.05;;;;;;;;;;4936764;29;20043;-85
2023/12/24 13:53:56;;;;;;;1.98;0.80;;;;;;;;;;4937043;29;20046;-85
2023/12/24 13:56:26;;;;;;;2.83;1.05;;;;;;;;;;4937685;29;20071;-84
2023/12/24 13:58:56;;;;;;;3.33;1.00;;;;;;;;;;4936213;29;20056;-84
2023/12/24 14:01:27;;;;;;;5.20;1.50;;;;;;;;;;4936191;29;20483;-85
2023/12/24 14:04:01;;;;;;;1.73;1.17;;;;;;;;;;4936676;29;20044;-85
2023/12/24 14:06:32;;;;;;;2.50;1.42;;;;;;;;;;4935968;29;20510;-84
2023/12/24 14:09:03;;;;;;;1.85;1.38;;;;;;;;;;4936251;29;20052;-84
2023/12/24 14:11:34;;;;;;;3.88;1.05;;;;;;;;;;4924857;29;20482;-86
2023/12/24 14:14:06;;;;;;;3.00;1.30;;;;;;;;;;4954200;29;20039;-85
2023/12/24 14:16:37;;;;;;;3.75;1.15;;;;;;;;;;4955227;29;20051;-84
2023/12/24 14:19:07;;;;;;;2.88;1.10;;;;;;;;;;4937224;29;20055;-85
2023/12/24 14:21:37;;;;;;;4.30;2.00;;;;;;;;;;4937018;29;20051;-86
2023/12/24 14:24:07;;;;;;;2.47;1.33;;;;;;;;;;4947431;29;20062;-84
2023/12/24 14:26:40;;;;;;;2.78;1.10;;;;;;;;;;4938106;29;20410;-85
2023/12/24 14:29:12;;;;;;;1.92;1.05;;;;;;;;;;4954282;29;20375;-84
2023/12/24 14:31:48;;;;;;;2.40;1.00;;;;;;;;;;5153244;23;20501;-84
2023/12/24 14:34:19;;;;;;;1.70;0.90;;;;;;;;;;4902613;29;20062;-85
2023/12/24 14:36:49;;;;;;;4.63;1.55;;;;;;;;;;4917689;29;20052;-86
2023/12/24 14:39:22;;;;;;;4.20;1.30;;;;;;;;;;4933349;29;20518;-86
2023/12/24 14:41:54;;;;;;;5.70;3.55;;;;;;;;;;4935657;29;20054;-85
2023/12/24 14:44:25;;;;;;;2.92;1.40;;;;;;;;;;4936013;29;20048;-87
2023/12/24 14:46:55;;;;;;;2.78;1.30;;;;;;;;;;4935596;29;20059;-86
2023/12/24 14:49:31;;;;;;;2.60;1.50;;;;;;;;;;4936471;29;20048;-84
2023/12/24 14:52:05;;;;;;;5.53;1.13;;;;;;;;;;4937535;29;20055;-84
2023/12/24 14:54:35;;;;;;;2.70;1.13;;;;;;;;;;4938467;29;20066;-85
2023/12/24 14:57:06;;;;;;;3.25;1.52;;;;;;;;;;4917535;29;20075;-86
2023/12/24 14:59:41;;;;;;;3.75;1.75;;;;;;;;;;4918089;29;20055;-85
2023/12/24 15:02:12;;;;;;;2.72;1.15;;;;;;;;;;4922730;29;20051;-84
2023/12/24 15:04:45;;;;;;;3.75;1.83;;;;;;;;;;4939745;29;20040;-84
2023/12/24 15:07:16;;;;;;;4.30;1.15;;;;;;;;;;4941358;29;20463;-84
2023/12/24 15:09:49;;;;;;;12.60;8.43;;;;;;;;;;4923223;29;20059;-84